sensor_id;sensor_type;location;lat;lon;timestamp;temperature;humidity
59311;DHT22;45078;51.654;21.250;2022-10-26T00:00:45;12.00;99.90
59311;DHT22;45078;51.654;21.250;2022-10-26T00:03:11;12.00;99.90
59311;DHT22;45078;51.654;21.250;2022-10-26T00:05:36;11.90;99.90
59311;DHT22;45078;51.654;21.250;2022-10-26T00:08:02;11.90;99.90
59311;DHT22;45078;51.654;21.250;2022-10-26T00:10:28;11.90;99.90
59311;DHT22;45078;51.654;21.250;2022-10-26T00:12:54;11.80;99.90
59311;DHT22;45078;51.654;21.250;2022-10-26T00:15:20;11.90;99.90
59311;DHT22;45078;51.654;21.250;2022-10-26T00:17:47;11.80;99.90
59311;DHT22;45078;51.654;21.250;2022-10-26T00:20:13;11.80;99.90
59311;DHT22;45078;51.654;21.250;2022-10-26T00:22:39;11.80;99.90
59311;DHT22;45078;51.654;21.250;2022-10-26T00:25:05;11.70;99.90
59311;DHT22;45078;51.654;21.250;2022-10-26T00:27:32;11.70;99.90
59311;DHT22;45078;51.654;21.250;2022-10-26T00:30:02;11.60;99.90
59311;DHT22;45078;51.654;21.250;2022-10-26T00:32:29;11.60;99.90
59311;DHT22;45078;51.654;21.250;2022-10-26T00:34:54;11.50;99.90
59311;DHT22;45078;51.654;21.250;2022-10-26T00:37:20;11.50;99.90
59311;DHT22;45078;51.654;21.250;2022-10-26T00:39:46;11.50;99.90
59311;DHT22;45078;51.654;21.250;2022-10-26T00:42:16;11.50;99.90
59311;DHT22;45078;51.654;21.250;2022-10-26T00:49:53;11.30;99.90
59311;DHT22;45078;51.654;21.250;2022-10-26T00:52:19;11.20;99.90
59311;DHT22;45078;51.654;21.250;2022-10-26T00:54:46;11.10;99.90
59311;DHT22;45078;51.654;21.250;2022-10-26T00:57:13;11.10;99.90
59311;DHT22;45078;51.654;21.250;2022-10-26T00:59:40;11.00;99.90
59311;DHT22;45078;51.654;21.250;2022-10-26T01:02:07;10.90;99.90
59311;DHT22;45078;51.654;21.250;2022-10-26T01:04:33;10.90;99.90
59311;DHT22;45078;51.654;21.250;2022-10-26T01:07:00;10.70;99.90
59311;DHT22;45078;51.654;21.250;2022-10-26T01:09:28;10.70;99.90
59311;DHT22;45078;51.654;21.250;2022-10-26T01:11:54;10.70;99.90
59311;DHT22;45078;51.654;21.250;2022-10-26T01:14:20;10.70;99.90
59311;DHT22;45078;51.654;21.250;2022-10-26T01:23:05;10.60;99.90
59311;DHT22;45078;51.654;21.250;2022-10-26T01:25:56;10.60;99.90
59311;DHT22;45078;51.654;21.250;2022-10-26T01:28:52;10.70;99.90
59311;DHT22;45078;51.654;21.250;2022-10-26T01:31:28;10.70;99.90
59311;DHT22;45078;51.654;21.250;2022-10-26T01:34:02;10.80;99.90
59311;DHT22;45078;51.654;21.250;2022-10-26T01:36:43;10.80;99.90
59311;DHT22;45078;51.654;21.250;2022-10-26T01:39:21;10.90;99.90
59311;DHT22;45078;51.654;21.250;2022-10-26T01:41:51;10.90;99.90
59311;DHT22;45078;51.654;21.250;2022-10-26T01:44:24;11.00;99.90
59311;DHT22;45078;51.654;21.250;2022-10-26T01:46:53;11.00;99.90
59311;DHT22;45078;51.654;21.250;2022-10-26T01:49:27;11.10;99.90
59311;DHT22;45078;51.654;21.250;2022-10-26T01:51:53;11.20;99.90
59311;DHT22;45078;51.654;21.250;2022-10-26T01:54:19;11.20;99.90
59311;DHT22;45078;51.654;21.250;2022-10-26T01:56:52;11.30;99.90
59311;DHT22;45078;51.654;21.250;2022-10-26T02:14:05;11.40;99.90
59311;DHT22;45078;51.654;21.250;2022-10-26T02:20:06;11.50;99.90
59311;DHT22;45078;51.654;21.250;2022-10-26T02:24:35;11.50;99.90
59311;DHT22;45078;51.654;21.250;2022-10-26T02:27:05;11.50;99.90
59311;DHT22;45078;51.654;21.250;2022-10-26T02:29:32;11.50;99.90
59311;DHT22;45078;51.654;21.250;2022-10-26T02:32:01;11.50;99.90
59311;DHT22;45078;51.654;21.250;2022-10-26T02:34:28;11.50;99.90
59311;DHT22;45078;51.654;21.250;2022-10-26T02:36:56;11.50;99.90
59311;DHT22;45078;51.654;21.250;2022-10-26T02:39:25;11.50;99.90
59311;DHT22;45078;51.654;21.250;2022-10-26T02:41:52;11.50;99.90
59311;DHT22;45078;51.654;21.250;2022-10-26T02:44:24;11.60;99.90
59311;DHT22;45078;51.654;21.250;2022-10-26T02:46:51;11.50;99.90
59311;DHT22;45078;51.654;21.250;2022-10-26T02:49:18;11.50;99.90
59311;DHT22;45078;51.654;21.250;2022-10-26T02:51:45;11.50;99.90
59311;DHT22;45078;51.654;21.250;2022-10-26T02:59:40;11.50;99.90
59311;DHT22;45078;51.654;21.250;2022-10-26T03:02:07;11.50;99.90
59311;DHT22;45078;51.654;21.250;2022-10-26T03:04:34;11.60;99.90
59311;DHT22;45078;51.654;21.250;2022-10-26T03:07:00;11.60;99.90
59311;DHT22;45078;51.654;21.250;2022-10-26T03:09:26;11.50;99.90
59311;DHT22;45078;51.654;21.250;2022-10-26T03:11:52;11.50;99.90
59311;DHT22;45078;51.654;21.250;2022-10-26T03:14:19;11.50;99.90
59311;DHT22;45078;51.654;21.250;2022-10-26T03:16:45;11.50;99.90
59311;DHT22;45078;51.654;21.250;2022-10-26T03:19:11;11.50;99.90
59311;DHT22;45078;51.654;21.250;2022-10-26T03:21:37;11.60;99.90
59311;DHT22;45078;51.654;21.250;2022-10-26T03:24:02;11.60;99.90
59311;DHT22;45078;51.654;21.250;2022-10-26T03:26:28;11.50;99.90
59311;DHT22;45078;51.654;21.250;2022-10-26T03:28:54;11.50;99.90
59311;DHT22;45078;51.654;21.250;2022-10-26T03:31:20;11.70;99.90
59311;DHT22;45078;51.654;21.250;2022-10-26T03:33:46;11.60;99.90
59311;DHT22;45078;51.654;21.250;2022-10-26T03:36:12;11.50;99.90
59311;DHT22;45078;51.654;21.250;2022-10-26T03:38:37;11.50;99.90
59311;DHT22;45078;51.654;21.250;2022-10-26T03:41:03;11.50;99.90
59311;DHT22;45078;51.654;21.250;2022-10-26T03:43:29;11.50;99.90
59311;DHT22;45078;51.654;21.250;2022-10-26T03:45:55;11.50;99.90
59311;DHT22;45078;51.654;21.250;2022-10-26T03:48:20;11.50;99.90
59311;DHT22;45078;51.654;21.250;2022-10-26T03:50:46;11.40;99.90
59311;DHT22;45078;51.654;21.250;2022-10-26T03:53:12;11.40;99.90
59311;DHT22;45078;51.654;21.250;2022-10-26T03:55:38;11.40;99.90
59311;DHT22;45078;51.654;21.250;2022-10-26T03:58:03;11.30;99.90
59311;DHT22;45078;51.654;21.250;2022-10-26T04:00:29;11.30;99.90
59311;DHT22;45078;51.654;21.250;2022-10-26T04:02:56;11.30;99.90
59311;DHT22;45078;51.654;21.250;2022-10-26T04:05:24;11.20;99.90
59311;DHT22;45078;51.654;21.250;2022-10-26T04:07:54;11.20;99.90
59311;DHT22;45078;51.654;21.250;2022-10-26T04:10:20;11.20;99.90
59311;DHT22;45078;51.654;21.250;2022-10-26T04:12:46;11.20;99.90
59311;DHT22;45078;51.654;21.250;2022-10-26T04:15:12;11.10;99.90
59311;DHT22;45078;51.654;21.250;2022-10-26T04:17:38;11.10;99.90
59311;DHT22;45078;51.654;21.250;2022-10-26T04:20:04;11.00;99.90
59311;DHT22;45078;51.654;21.250;2022-10-26T04:22:30;11.00;99.90
59311;DHT22;45078;51.654;21.250;2022-10-26T04:24:56;11.00;99.90
59311;DHT22;45078;51.654;21.250;2022-10-26T04:27:22;10.90;99.90
59311;DHT22;45078;51.654;21.250;2022-10-26T04:29:48;10.90;99.90
59311;DHT22;45078;51.654;21.250;2022-10-26T04:32:14;10.90;99.90
59311;DHT22;45078;51.654;21.250;2022-10-26T04:34:39;10.90;99.90
59311;DHT22;45078;51.654;21.250;2022-10-26T04:37:05;10.90;99.90
59311;DHT22;45078;51.654;21.250;2022-10-26T04:39:31;10.80;99.90
59311;DHT22;45078;51.654;21.250;2022-10-26T04:41:57;10.80;99.90
59311;DHT22;45078;51.654;21.250;2022-10-26T04:44:23;10.80;99.90
59311;DHT22;45078;51.654;21.250;2022-10-26T04:46:48;10.80;99.90
59311;DHT22;45078;51.654;21.250;2022-10-26T04:49:14;10.80;99.90
59311;DHT22;45078;51.654;21.250;2022-10-26T04:51:40;10.80;99.90
59311;DHT22;45078;51.654;21.250;2022-10-26T04:54:06;10.90;99.90
59311;DHT22;45078;51.654;21.250;2022-10-26T04:56:32;10.80;99.90
59311;DHT22;45078;51.654;21.250;2022-10-26T04:58:58;10.90;99.90
59311;DHT22;45078;51.654;21.250;2022-10-26T05:01:24;10.80;99.90
59311;DHT22;45078;51.654;21.250;2022-10-26T05:03:51;10.80;99.90
59311;DHT22;45078;51.654;21.250;2022-10-26T05:06:18;10.90;99.90
59311;DHT22;45078;51.654;21.250;2022-10-26T05:08:44;10.80;99.90
59311;DHT22;45078;51.654;21.250;2022-10-26T05:11:10;10.70;99.90
59311;DHT22;45078;51.654;21.250;2022-10-26T05:13:36;10.70;99.90
59311;DHT22;45078;51.654;21.250;2022-10-26T05:16:02;10.60;99.90
59311;DHT22;45078;51.654;21.250;2022-10-26T05:18:27;10.60;99.90
59311;DHT22;45078;51.654;21.250;2022-10-26T05:20:54;10.60;99.90
59311;DHT22;45078;51.654;21.250;2022-10-26T05:23:20;10.60;99.90
59311;DHT22;45078;51.654;21.250;2022-10-26T05:25:47;10.70;99.90
59311;DHT22;45078;51.654;21.250;2022-10-26T05:28:14;10.60;99.90
59311;DHT22;45078;51.654;21.250;2022-10-26T05:30:41;10.60;99.90
59311;DHT22;45078;51.654;21.250;2022-10-26T05:33:08;10.60;99.90
59311;DHT22;45078;51.654;21.250;2022-10-26T05:35:38;10.60;99.90
59311;DHT22;45078;51.654;21.250;2022-10-26T05:38:09;10.60;99.90
59311;DHT22;45078;51.654;21.250;2022-10-26T05:40:35;10.60;99.90
59311;DHT22;45078;51.654;21.250;2022-10-26T05:43:01;10.60;99.90
59311;DHT22;45078;51.654;21.250;2022-10-26T05:45:27;10.60;99.90
59311;DHT22;45078;51.654;21.250;2022-10-26T05:47:53;10.60;99.90
59311;DHT22;45078;51.654;21.250;2022-10-26T05:50:19;10.60;99.90
59311;DHT22;45078;51.654;21.250;2022-10-26T05:52:46;10.60;99.90
59311;DHT22;45078;51.654;21.250;2022-10-26T05:55:15;10.70;99.90
59311;DHT22;45078;51.654;21.250;2022-10-26T05:57:41;10.60;99.90
59311;DHT22;45078;51.654;21.250;2022-10-26T06:00:27;10.70;99.90
59311;DHT22;45078;51.654;21.250;2022-10-26T06:05:57;10.70;99.90
59311;DHT22;45078;51.654;21.250;2022-10-26T06:08:26;10.70;99.90
59311;DHT22;45078;51.654;21.250;2022-10-26T06:10:53;10.70;99.90
59311;DHT22;45078;51.654;21.250;2022-10-26T06:13:20;10.80;99.90
59311;DHT22;45078;51.654;21.250;2022-10-26T06:27:15;10.80;99.90
59311;DHT22;45078;51.654;21.250;2022-10-26T06:30:03;10.80;99.90
59311;DHT22;45078;51.654;21.250;2022-10-26T06:32:32;10.80;99.90
59311;DHT22;45078;51.654;21.250;2022-10-26T06:37:49;10.80;99.90
59311;DHT22;45078;51.654;21.250;2022-10-26T06:40:16;10.80;99.90
59311;DHT22;45078;51.654;21.250;2022-10-26T06:42:42;10.80;99.90
59311;DHT22;45078;51.654;21.250;2022-10-26T06:45:15;10.80;99.90
59311;DHT22;45078;51.654;21.250;2022-10-26T06:50:36;10.90;99.90
59311;DHT22;45078;51.654;21.250;2022-10-26T06:55:42;10.70;99.90
59311;DHT22;45078;51.654;21.250;2022-10-26T06:58:14;10.70;99.90
59311;DHT22;45078;51.654;21.250;2022-10-26T07:00:40;10.60;99.90
59311;DHT22;45078;51.654;21.250;2022-10-26T07:03:07;10.60;99.90
59311;DHT22;45078;51.654;21.250;2022-10-26T07:05:33;10.60;99.90
59311;DHT22;45078;51.654;21.250;2022-10-26T07:07:58;10.60;99.90
59311;DHT22;45078;51.654;21.250;2022-10-26T07:10:24;10.60;99.90
59311;DHT22;45078;51.654;21.250;2022-10-26T07:12:50;10.60;99.90
59311;DHT22;45078;51.654;21.250;2022-10-26T07:15:16;10.50;99.90
59311;DHT22;45078;51.654;21.250;2022-10-26T07:17:46;10.50;99.90
59311;DHT22;45078;51.654;21.250;2022-10-26T07:20:13;10.60;99.90
59311;DHT22;45078;51.654;21.250;2022-10-26T07:22:39;10.50;99.90
59311;DHT22;45078;51.654;21.250;2022-10-26T07:25:08;10.60;99.90
59311;DHT22;45078;51.654;21.250;2022-10-26T07:27:34;10.70;99.90
59311;DHT22;45078;51.654;21.250;2022-10-26T07:30:01;10.70;99.90
59311;DHT22;45078;51.654;21.250;2022-10-26T07:32:27;10.70;99.90
59311;DHT22;45078;51.654;21.250;2022-10-26T07:34:52;10.60;99.90
59311;DHT22;45078;51.654;21.250;2022-10-26T07:37:18;10.60;99.90
59311;DHT22;45078;51.654;21.250;2022-10-26T07:39:44;10.60;99.90
59311;DHT22;45078;51.654;21.250;2022-10-26T07:42:10;10.60;99.90
59311;DHT22;45078;51.654;21.250;2022-10-26T07:44:36;10.70;99.90
59311;DHT22;45078;51.654;21.250;2022-10-26T07:47:01;10.80;99.90
59311;DHT22;45078;51.654;21.250;2022-10-26T07:49:27;10.90;99.90
59311;DHT22;45078;51.654;21.250;2022-10-26T07:51:53;10.90;99.90
59311;DHT22;45078;51.654;21.250;2022-10-26T07:54:18;11.00;99.90
59311;DHT22;45078;51.654;21.250;2022-10-26T07:56:44;11.00;99.90
59311;DHT22;45078;51.654;21.250;2022-10-26T07:59:13;11.10;99.90
59311;DHT22;45078;51.654;21.250;2022-10-26T08:01:39;11.10;99.90
59311;DHT22;45078;51.654;21.250;2022-10-26T08:04:04;11.10;99.90
59311;DHT22;45078;51.654;21.250;2022-10-26T08:06:30;11.00;99.90
59311;DHT22;45078;51.654;21.250;2022-10-26T08:08:56;11.10;99.90
59311;DHT22;45078;51.654;21.250;2022-10-26T08:11:23;11.20;99.90
59311;DHT22;45078;51.654;21.250;2022-10-26T08:13:51;11.10;99.90
59311;DHT22;45078;51.654;21.250;2022-10-26T08:16:18;11.00;99.90
59311;DHT22;45078;51.654;21.250;2022-10-26T08:18:47;11.00;99.90
59311;DHT22;45078;51.654;21.250;2022-10-26T08:21:13;11.00;99.90
59311;DHT22;45078;51.654;21.250;2022-10-26T08:23:39;11.10;99.90
59311;DHT22;45078;51.654;21.250;2022-10-26T08:26:05;11.10;99.90
59311;DHT22;45078;51.654;21.250;2022-10-26T08:28:31;11.10;99.90
59311;DHT22;45078;51.654;21.250;2022-10-26T08:30:57;11.10;99.90
59311;DHT22;45078;51.654;21.250;2022-10-26T08:33:24;11.20;99.90
59311;DHT22;45078;51.654;21.250;2022-10-26T08:36:00;11.20;99.90
59311;DHT22;45078;51.654;21.250;2022-10-26T08:38:27;11.30;99.90
59311;DHT22;45078;51.654;21.250;2022-10-26T08:40:54;11.30;99.90
59311;DHT22;45078;51.654;21.250;2022-10-26T08:43:30;11.20;99.90
59311;DHT22;45078;51.654;21.250;2022-10-26T08:48:36;11.40;99.90
59311;DHT22;45078;51.654;21.250;2022-10-26T08:51:35;11.40;99.90
59311;DHT22;45078;51.654;21.250;2022-10-26T08:54:18;11.40;99.90
59311;DHT22;45078;51.654;21.250;2022-10-26T08:56:50;11.50;99.90
59311;DHT22;45078;51.654;21.250;2022-10-26T09:01:51;11.40;99.90
59311;DHT22;45078;51.654;21.250;2022-10-26T09:04:19;11.40;99.90
59311;DHT22;45078;51.654;21.250;2022-10-26T09:06:51;11.40;99.90
59311;DHT22;45078;51.654;21.250;2022-10-26T09:14:39;11.60;99.90
59311;DHT22;45078;51.654;21.250;2022-10-26T09:29:10;11.80;99.90
59311;DHT22;45078;51.654;21.250;2022-10-26T09:31:41;11.70;99.90
59311;DHT22;45078;51.654;21.250;2022-10-26T09:34:13;11.60;99.90
59311;DHT22;45078;51.654;21.250;2022-10-26T09:36:40;11.70;99.90
59311;DHT22;45078;51.654;21.250;2022-10-26T09:39:22;11.70;99.90
59311;DHT22;45078;51.654;21.250;2022-10-26T09:41:59;11.70;99.90
59311;DHT22;45078;51.654;21.250;2022-10-26T09:44:30;11.70;99.90
59311;DHT22;45078;51.654;21.250;2022-10-26T09:52:06;11.90;99.90
59311;DHT22;45078;51.654;21.250;2022-10-26T09:54:32;11.90;99.90
59311;DHT22;45078;51.654;21.250;2022-10-26T09:56:58;11.90;99.90
59311;DHT22;45078;51.654;21.250;2022-10-26T09:59:27;12.10;99.90
59311;DHT22;45078;51.654;21.250;2022-10-26T10:01:53;12.30;99.90
59311;DHT22;45078;51.654;21.250;2022-10-26T10:04:21;12.40;99.90
59311;DHT22;45078;51.654;21.250;2022-10-26T10:06:52;12.50;99.90
59311;DHT22;45078;51.654;21.250;2022-10-26T10:09:22;12.70;99.90
59311;DHT22;45078;51.654;21.250;2022-10-26T10:12:01;12.80;99.90
59311;DHT22;45078;51.654;21.250;2022-10-26T10:14:36;12.80;99.90
59311;DHT22;45078;51.654;21.250;2022-10-26T10:19:44;12.90;99.90
59311;DHT22;45078;51.654;21.250;2022-10-26T10:22:17;13.00;99.90
59311;DHT22;45078;51.654;21.250;2022-10-26T10:24:59;13.00;99.90
59311;DHT22;45078;51.654;21.250;2022-10-26T10:27:26;12.90;99.90
59311;DHT22;45078;51.654;21.250;2022-10-26T10:29:57;13.10;99.90
59311;DHT22;45078;51.654;21.250;2022-10-26T10:32:28;13.10;99.90
59311;DHT22;45078;51.654;21.250;2022-10-26T10:34:59;13.00;99.90
59311;DHT22;45078;51.654;21.250;2022-10-26T10:40:05;13.30;99.90
59311;DHT22;45078;51.654;21.250;2022-10-26T10:42:37;13.50;99.90
59311;DHT22;45078;51.654;21.250;2022-10-26T10:45:05;13.70;99.90
59311;DHT22;45078;51.654;21.250;2022-10-26T10:47:35;13.80;99.90
59311;DHT22;45078;51.654;21.250;2022-10-26T10:52:49;14.30;99.90
59311;DHT22;45078;51.654;21.250;2022-10-26T10:55:19;14.60;99.90
59311;DHT22;45078;51.654;21.250;2022-10-26T11:00:38;15.40;99.90
59311;DHT22;45078;51.654;21.250;2022-10-26T11:03:19;15.70;99.90
59311;DHT22;45078;51.654;21.250;2022-10-26T11:06:03;15.50;99.90
59311;DHT22;45078;51.654;21.250;2022-10-26T11:11:33;15.60;99.90
59311;DHT22;45078;51.654;21.250;2022-10-26T11:14:10;16.00;99.90
59311;DHT22;45078;51.654;21.250;2022-10-26T11:16:55;16.30;99.90
59311;DHT22;45078;51.654;21.250;2022-10-26T11:19:30;16.30;99.90
59311;DHT22;45078;51.654;21.250;2022-10-26T11:21:57;16.60;99.90
59311;DHT22;45078;51.654;21.250;2022-10-26T11:24:27;16.70;99.90
59311;DHT22;45078;51.654;21.250;2022-10-26T11:30:21;17.30;99.90
59311;DHT22;45078;51.654;21.250;2022-10-26T11:33:04;17.50;99.90
59311;DHT22;45078;51.654;21.250;2022-10-26T11:38:34;17.40;99.90
59311;DHT22;45078;51.654;21.250;2022-10-26T11:44:18;17.20;99.90
59311;DHT22;45078;51.654;21.250;2022-10-26T11:47:00;16.90;99.90
59311;DHT22;45078;51.654;21.250;2022-10-26T11:52:29;16.50;99.90
59311;DHT22;45078;51.654;21.250;2022-10-26T11:54:59;16.30;99.90
59311;DHT22;45078;51.654;21.250;2022-10-26T11:57:27;16.40;99.90
59311;DHT22;45078;51.654;21.250;2022-10-26T12:03:01;16.40;99.90
59311;DHT22;45078;51.654;21.250;2022-10-26T12:05:48;16.40;99.90
59311;DHT22;45078;51.654;21.250;2022-10-26T12:08:23;16.60;99.90
59311;DHT22;45078;51.654;21.250;2022-10-26T12:14:03;16.80;99.90
59311;DHT22;45078;51.654;21.250;2022-10-26T12:16:48;16.70;99.90
59311;DHT22;45078;51.654;21.250;2022-10-26T12:19:50;16.50;99.90
59311;DHT22;45078;51.654;21.250;2022-10-26T12:22:21;16.00;99.90
59311;DHT22;45078;51.654;21.250;2022-10-26T12:27:53;15.60;99.90
59311;DHT22;45078;51.654;21.250;2022-10-26T12:30:26;15.40;99.90
59311;DHT22;45078;51.654;21.250;2022-10-26T12:33:03;15.30;99.90
59311;DHT22;45078;51.654;21.250;2022-10-26T12:35:49;15.20;99.90
59311;DHT22;45078;51.654;21.250;2022-10-26T12:41:21;15.00;99.90
59311;DHT22;45078;51.654;21.250;2022-10-26T12:43:47;14.90;99.90
59311;DHT22;45078;51.654;21.250;2022-10-26T12:48:43;15.00;99.90
59311;DHT22;45078;51.654;21.250;2022-10-26T12:59:39;15.30;99.90
59311;DHT22;45078;51.654;21.250;2022-10-26T13:02:36;15.20;99.90
59311;DHT22;45078;51.654;21.250;2022-10-26T13:05:23;15.30;99.90
59311;DHT22;45078;51.654;21.250;2022-10-26T13:07:50;15.90;99.90
59311;DHT22;45078;51.654;21.250;2022-10-26T13:10:20;16.80;99.90
59311;DHT22;45078;51.654;21.250;2022-10-26T13:12:50;17.80;99.90
59311;DHT22;45078;51.654;21.250;2022-10-26T13:15:50;18.70;99.90
59311;DHT22;45078;51.654;21.250;2022-10-26T13:18:18;20.30;99.90
59311;DHT22;45078;51.654;21.250;2022-10-26T13:21:10;21.20;99.90
59311;DHT22;45078;51.654;21.250;2022-10-26T13:26:24;22.80;97.90
59311;DHT22;45078;51.654;21.250;2022-10-26T13:29:01;23.30;95.00
59311;DHT22;45078;51.654;21.250;2022-10-26T13:34:18;23.90;92.50
59311;DHT22;45078;51.654;21.250;2022-10-26T13:36:54;24.40;90.90
59311;DHT22;45078;51.654;21.250;2022-10-26T13:39:35;25.80;83.00
59311;DHT22;45078;51.654;21.250;2022-10-26T13:42:04;25.60;79.70
59311;DHT22;45078;51.654;21.250;2022-10-26T13:44:41;26.10;75.60
59311;DHT22;45078;51.654;21.250;2022-10-26T13:47:43;26.50;73.70
59311;DHT22;45078;51.654;21.250;2022-10-26T13:50:19;26.20;73.30
59311;DHT22;45078;51.654;21.250;2022-10-26T13:52:53;25.80;75.30
59311;DHT22;45078;51.654;21.250;2022-10-26T13:55:21;25.90;75.40
59311;DHT22;45078;51.654;21.250;2022-10-26T13:58:19;26.60;72.70
59311;DHT22;45078;51.654;21.250;2022-10-26T14:01:23;26.20;71.90
59311;DHT22;45078;51.654;21.250;2022-10-26T14:03:49;25.20;75.00
59311;DHT22;45078;51.654;21.250;2022-10-26T14:06:21;24.40;78.90
59311;DHT22;45078;51.654;21.250;2022-10-26T14:08:50;24.90;78.60
59311;DHT22;45078;51.654;21.250;2022-10-26T14:11:19;24.30;79.00
59311;DHT22;45078;51.654;21.250;2022-10-26T14:13:48;24.20;80.70
59311;DHT22;45078;51.654;21.250;2022-10-26T14:16:16;24.00;80.80
59311;DHT22;45078;51.654;21.250;2022-10-26T14:18:47;24.10;80.50
59311;DHT22;45078;51.654;21.250;2022-10-26T14:21:17;23.70;82.70
59311;DHT22;45078;51.654;21.250;2022-10-26T14:23:49;22.70;88.40
59311;DHT22;45078;51.654;21.250;2022-10-26T14:26:29;22.80;89.80
59311;DHT22;45078;51.654;21.250;2022-10-26T14:28:57;23.30;87.90
59311;DHT22;45078;51.654;21.250;2022-10-26T14:31:26;22.10;92.40
59311;DHT22;45078;51.654;21.250;2022-10-26T14:33:53;21.40;96.50
59311;DHT22;45078;51.654;21.250;2022-10-26T14:36:29;20.50;99.90
59311;DHT22;45078;51.654;21.250;2022-10-26T14:39:10;19.70;99.90
59311;DHT22;45078;51.654;21.250;2022-10-26T14:41:39;19.40;99.90
59311;DHT22;45078;51.654;21.250;2022-10-26T14:44:16;18.60;99.90
59311;DHT22;45078;51.654;21.250;2022-10-26T14:46:43;17.70;99.90
59311;DHT22;45078;51.654;21.250;2022-10-26T14:49:21;17.00;99.90
59311;DHT22;45078;51.654;21.250;2022-10-26T14:51:56;16.60;99.90
59311;DHT22;45078;51.654;21.250;2022-10-26T14:54:25;16.00;99.90
59311;DHT22;45078;51.654;21.250;2022-10-26T14:56:52;15.70;99.90
59311;DHT22;45078;51.654;21.250;2022-10-26T14:59:23;15.40;99.90
59311;DHT22;45078;51.654;21.250;2022-10-26T15:04:40;15.00;99.90
59311;DHT22;45078;51.654;21.250;2022-10-26T15:07:17;14.70;99.90
59311;DHT22;45078;51.654;21.250;2022-10-26T15:09:45;14.50;99.90
59311;DHT22;45078;51.654;21.250;2022-10-26T15:12:34;14.20;99.90
59311;DHT22;45078;51.654;21.250;2022-10-26T15:17:41;13.70;99.90
59311;DHT22;45078;51.654;21.250;2022-10-26T15:20:22;13.50;99.90
59311;DHT22;45078;51.654;21.250;2022-10-26T15:22:56;13.30;99.90
59311;DHT22;45078;51.654;21.250;2022-10-26T15:25:26;13.10;99.90
59311;DHT22;45078;51.654;21.250;2022-10-26T15:27:53;12.80;99.90
59311;DHT22;45078;51.654;21.250;2022-10-26T15:30:24;12.60;99.90
59311;DHT22;45078;51.654;21.250;2022-10-26T15:32:54;12.40;99.90
59311;DHT22;45078;51.654;21.250;2022-10-26T15:35:30;12.40;99.90
59311;DHT22;45078;51.654;21.250;2022-10-26T15:37:58;12.20;99.90
59311;DHT22;45078;51.654;21.250;2022-10-26T15:40:25;12.10;99.90
59311;DHT22;45078;51.654;21.250;2022-10-26T15:42:54;12.00;99.90
59311;DHT22;45078;51.654;21.250;2022-10-26T15:45:30;11.90;99.90
59311;DHT22;45078;51.654;21.250;2022-10-26T15:48:02;11.80;99.90
59311;DHT22;45078;51.654;21.250;2022-10-26T15:50:41;11.70;99.90
59311;DHT22;45078;51.654;21.250;2022-10-26T15:53:29;11.60;99.90
59311;DHT22;45078;51.654;21.250;2022-10-26T15:55:57;11.40;99.90
59311;DHT22;45078;51.654;21.250;2022-10-26T15:58:24;11.30;99.90
59311;DHT22;45078;51.654;21.250;2022-10-26T16:00:50;11.10;99.90
59311;DHT22;45078;51.654;21.250;2022-10-26T16:03:20;11.00;99.90
59311;DHT22;45078;51.654;21.250;2022-10-26T16:05:52;11.00;99.90
59311;DHT22;45078;51.654;21.250;2022-10-26T16:08:19;10.80;99.90
59311;DHT22;45078;51.654;21.250;2022-10-26T16:10:46;10.60;99.90
59311;DHT22;45078;51.654;21.250;2022-10-26T16:13:13;10.50;99.90
59311;DHT22;45078;51.654;21.250;2022-10-26T16:15:39;10.50;99.90
59311;DHT22;45078;51.654;21.250;2022-10-26T16:18:05;10.30;99.90
59311;DHT22;45078;51.654;21.250;2022-10-26T16:20:31;10.20;99.90
59311;DHT22;45078;51.654;21.250;2022-10-26T16:22:56;10.10;99.90
59311;DHT22;45078;51.654;21.250;2022-10-26T16:25:25;10.10;99.90
59311;DHT22;45078;51.654;21.250;2022-10-26T16:27:53;10.00;99.90
59311;DHT22;45078;51.654;21.250;2022-10-26T16:30:20;9.90;99.90
59311;DHT22;45078;51.654;21.250;2022-10-26T16:32:46;9.80;99.90
59311;DHT22;45078;51.654;21.250;2022-10-26T16:35:12;9.80;99.90
59311;DHT22;45078;51.654;21.250;2022-10-26T16:37:38;9.70;99.90
59311;DHT22;45078;51.654;21.250;2022-10-26T16:40:05;9.60;99.90
59311;DHT22;45078;51.654;21.250;2022-10-26T16:42:32;9.50;99.90
59311;DHT22;45078;51.654;21.250;2022-10-26T16:44:58;9.50;99.90
59311;DHT22;45078;51.654;21.250;2022-10-26T16:47:24;9.40;99.90
59311;DHT22;45078;51.654;21.250;2022-10-26T16:49:51;9.30;99.90
59311;DHT22;45078;51.654;21.250;2022-10-26T16:52:17;9.30;99.90
59311;DHT22;45078;51.654;21.250;2022-10-26T16:54:43;9.20;99.90
59311;DHT22;45078;51.654;21.250;2022-10-26T16:57:09;9.10;99.90
59311;DHT22;45078;51.654;21.250;2022-10-26T16:59:35;9.10;99.90
59311;DHT22;45078;51.654;21.250;2022-10-26T17:02:01;9.00;99.90
59311;DHT22;45078;51.654;21.250;2022-10-26T17:04:27;8.90;99.90
59311;DHT22;45078;51.654;21.250;2022-10-26T17:06:53;8.80;99.90
59311;DHT22;45078;51.654;21.250;2022-10-26T17:09:19;8.80;99.90
59311;DHT22;45078;51.654;21.250;2022-10-26T17:11:45;8.80;99.90
59311;DHT22;45078;51.654;21.250;2022-10-26T17:14:11;8.70;99.90
59311;DHT22;45078;51.654;21.250;2022-10-26T17:16:37;8.60;99.90
59311;DHT22;45078;51.654;21.250;2022-10-26T17:19:03;8.60;99.90
59311;DHT22;45078;51.654;21.250;2022-10-26T17:21:35;8.60;99.90
59311;DHT22;45078;51.654;21.250;2022-10-26T17:24:01;8.50;99.90
59311;DHT22;45078;51.654;21.250;2022-10-26T17:26:27;8.40;99.90
59311;DHT22;45078;51.654;21.250;2022-10-26T17:28:55;8.30;99.90
59311;DHT22;45078;51.654;21.250;2022-10-26T17:31:23;8.30;99.90
59311;DHT22;45078;51.654;21.250;2022-10-26T17:33:49;8.20;99.90
59311;DHT22;45078;51.654;21.250;2022-10-26T17:36:18;8.20;99.90
59311;DHT22;45078;51.654;21.250;2022-10-26T17:38:47;8.20;99.90
59311;DHT22;45078;51.654;21.250;2022-10-26T17:41:15;8.20;99.90
59311;DHT22;45078;51.654;21.250;2022-10-26T17:43:42;8.10;99.90
59311;DHT22;45078;51.654;21.250;2022-10-26T17:46:11;8.00;99.90
59311;DHT22;45078;51.654;21.250;2022-10-26T17:48:37;8.00;99.90
59311;DHT22;45078;51.654;21.250;2022-10-26T17:51:10;8.00;99.90
59311;DHT22;45078;51.654;21.250;2022-10-26T17:53:36;8.00;99.90
59311;DHT22;45078;51.654;21.250;2022-10-26T17:56:22;7.90;99.90
59311;DHT22;45078;51.654;21.250;2022-10-26T17:58:53;7.80;99.90
59311;DHT22;45078;51.654;21.250;2022-10-26T18:01:19;7.80;99.90